Selvin, Indiana
Current Conditions -  °F | °C
As of 4:35 AM on Thursday 29 Jan 2015 (Local Time) from KHNB Reporting Station
Few Clouds Few Clouds  
Wind Chill: 37°   Ceiling: Unl
Heat Index: 45°   Visibility: 10mi
Dew Point: 32°   Wind: 16mph
Humidity: 61%   Direction: 190°S
Pressure: 29.87"   Gusts: 22mph
Location:  38.17°N, 87.0282°W
Report Text: KHNB 291035Z AUTO 19014G19KT 10SM FEW100 07/00 A2987 RMK AO1
Loading
Personal Weather Stations






























Interactive Weather Map New forecast layout! Learn more

10-Day Weather Forecast

Advertisements
Track Severe Weather on mobile